createdAt,value
2023-04-20T00:01:42.479Z,99.9
2023-04-20T00:03:46.305Z,99.9
2023-04-20T00:05:49.760Z,99.9
2023-04-20T00:07:53.475Z,99.9
2023-04-20T00:10:00.220Z,99.9
2023-04-20T00:12:03.892Z,99.9
2023-04-20T00:14:07.744Z,99.9
2023-04-20T00:16:11.341Z,99.9
2023-04-20T00:18:14.988Z,99.9
2023-04-20T00:20:18.712Z,99.9
2023-04-20T00:22:22.353Z,99.9
2023-04-20T00:24:29.106Z,99.9
2023-04-20T00:29:39.810Z,99.9
2023-04-20T00:31:43.493Z,99.9
2023-04-20T00:33:47.180Z,99.9
2023-04-20T00:35:50.795Z,99.9
2023-04-20T00:37:57.524Z,99.9
2023-04-20T00:42:04.940Z,99.9
2023-04-20T00:44:08.607Z,99.9
2023-04-20T00:46:12.269Z,99.9
2023-04-20T00:52:26.349Z,99.9
2023-04-20T00:54:30.044Z,99.9
2023-04-20T00:56:33.731Z,99.9
2023-04-20T00:58:37.378Z,99.9
2023-04-20T01:00:41.061Z,99.9
2023-04-20T01:02:44.827Z,99.9
2023-04-20T01:04:48.505Z,99.9
2023-04-20T01:06:55.108Z,99.9
2023-04-20T01:08:58.785Z,99.9
2023-04-20T01:11:02.458Z,99.9
2023-04-20T01:13:06.143Z,99.9
2023-04-20T01:15:09.821Z,99.9
2023-04-20T01:17:13.473Z,99.9
2023-04-20T01:19:17.372Z,99.9
2023-04-20T01:23:27.514Z,99.9
2023-04-20T01:26:34.570Z,99.9
2023-04-20T01:28:38.206Z,99.9
2023-04-20T01:32:45.608Z,99.9
2023-04-20T01:34:52.296Z,99.9
2023-04-20T01:36:55.961Z,99.9
2023-04-20T01:38:59.621Z,99.9
2023-04-20T01:41:03.306Z,99.9
2023-04-20T01:47:14.265Z,99.9
2023-04-20T01:49:21.003Z,99.9
2023-04-20T01:51:24.653Z,99.9
2023-04-20T01:53:28.325Z,99.9
2023-04-20T02:03:50.121Z,99.9
2023-04-20T02:05:53.371Z,99.9
2023-04-20T02:07:57.040Z,99.9
2023-04-20T02:10:00.699Z,99.9
2023-04-20T02:12:04.834Z,99.9
2023-04-20T02:14:08.041Z,99.9
2023-04-20T02:24:50.121Z,99.9
2023-04-20T02:26:53.717Z,99.9
2023-04-20T02:28:57.426Z,99.9
2023-04-20T02:31:04.221Z,99.9
2023-04-20T02:35:11.813Z,99.9
2023-04-20T02:49:40.388Z,99.9
2023-04-20T02:51:44.087Z,99.9
2023-04-20T02:53:47.724Z,99.9
2023-04-20T02:55:51.372Z,99.9
2023-04-20T02:57:55.021Z,99.9
2023-04-20T03:02:05.444Z,99.9
2023-04-20T03:04:09.084Z,99.9
2023-04-20T03:08:16.359Z,99.9
2023-04-20T03:12:23.674Z,99.9
2023-04-20T03:19:41.018Z,99.9
2023-04-20T03:21:44.673Z,99.9
2023-04-20T03:27:58.634Z,99.9
2023-04-20T03:32:06.086Z,99.9
2023-04-20T03:34:09.588Z,99.9
2023-04-20T03:36:13.171Z,99.9
2023-04-20T03:38:16.910Z,99.9
2023-04-20T03:40:20.517Z,99.9
2023-04-20T03:42:27.257Z,99.9
2023-04-20T03:44:30.852Z,99.9
2023-04-20T03:46:34.510Z,99.9
2023-04-20T03:52:45.447Z,99.9
2023-04-20T03:54:49.176Z,99.9
2023-04-20T04:03:06.859Z,99.9
2023-04-20T04:05:10.423Z,99.9
2023-04-20T04:07:13.985Z,99.9
2023-04-20T04:09:17.852Z,99.9
2023-04-20T04:11:24.323Z,99.9
2023-04-20T04:13:27.977Z,99.9
2023-04-20T04:15:31.626Z,99.9
2023-04-20T04:22:45.943Z,99.9
2023-04-20T04:26:56.311Z,99.9
2023-04-20T04:28:59.955Z,99.9
2023-04-20T04:31:03.620Z,99.9
2023-04-20T04:33:07.237Z,99.9
2023-04-20T04:37:14.518Z,99.9
2023-04-20T04:39:21.200Z,99.9
2023-04-20T04:41:24.815Z,99.9
2023-04-20T04:43:28.488Z,99.9
2023-04-20T04:45:32.176Z,99.9
2023-04-20T04:49:39.435Z,99.9
2023-04-20T04:51:43.074Z,99.9
2023-04-20T04:53:49.812Z,99.9
2023-04-20T04:55:53.426Z,99.9
2023-04-20T04:57:57.113Z,99.9
2023-04-20T05:00:00.765Z,99.9
2023-04-20T05:02:04.498Z,99.9
2023-04-20T05:04:08.206Z,99.9
2023-04-20T05:06:11.680Z,99.9
2023-04-20T05:08:18.437Z,99.9
2023-04-20T05:10:22.063Z,99.9
2023-04-20T05:13:29.060Z,99.9
2023-04-20T05:15:32.693Z,99.9
2023-04-20T05:17:36.361Z,99.9
2023-04-20T05:19:39.997Z,99.9
2023-04-20T05:21:46.673Z,99.9
2023-04-20T05:23:50.282Z,99.9
2023-04-20T05:25:53.953Z,99.9
2023-04-20T05:27:57.604Z,99.9
2023-04-20T05:30:16.585Z,99.9
2023-04-20T05:32:05.006Z,99.9
2023-04-20T05:34:08.518Z,99.9
2023-04-20T05:38:18.868Z,99.9
2023-04-20T05:40:22.511Z,99.9
2023-04-20T05:42:26.145Z,99.9
2023-04-20T06:01:03.534Z,99.9
2023-04-20T06:03:07.409Z,99.9
2023-04-20T06:05:13.946Z,99.9
2023-04-20T06:07:17.589Z,99.9
2023-04-20T06:09:21.161Z,99.9
2023-04-20T06:17:53.978Z,99.9
2023-04-20T06:26:08.474Z,99.9
2023-04-20T06:28:12.116Z,99.9
2023-04-20T06:30:15.709Z,99.9
2023-04-20T06:32:22.483Z,99.9
2023-04-20T06:34:26.069Z,99.9
2023-04-20T06:38:33.348Z,99.9
2023-04-20T06:40:36.971Z,99.9
2023-04-20T06:42:40.614Z,99.9
2023-04-20T06:44:44.244Z,99.9
2023-04-20T06:50:58.212Z,99.9
2023-04-20T06:53:01.864Z,99.9
2023-04-20T06:55:05.503Z,99.9
2023-04-20T07:03:23.296Z,99.9
2023-04-20T07:05:26.778Z,99.9
2023-04-20T07:06:30.137Z,99.9
2023-04-20T07:14:47.761Z,99.9
2023-04-20T07:18:55.057Z,99.9
2023-04-20T07:20:58.696Z,99.9
2023-04-20T07:23:02.343Z,99.9
2023-04-20T07:25:06.006Z,99.9
2023-04-20T07:27:09.595Z,99.9
2023-04-20T07:31:19.991Z,99.9
2023-04-20T07:33:23.614Z,99.9
2023-04-20T07:35:27.252Z,99.9
2023-04-20T07:37:30.887Z,99.9
2023-04-20T07:39:34.526Z,99.9
2023-04-20T07:41:38.179Z,99.9
2023-04-20T07:43:44.853Z,99.9
2023-04-20T07:45:48.586Z,99.9
2023-04-20T07:47:52.195Z,99.9
2023-04-20T07:49:55.759Z,99.9
2023-04-20T07:52:12.875Z,99.9
2023-04-20T07:54:03.037Z,99.9
2023-04-20T08:02:20.728Z,99.9
2023-04-20T08:03:24.174Z,99.9
2023-04-20T08:07:31.285Z,99.9
2023-04-20T08:09:34.951Z,99.9
2023-04-20T08:17:52.488Z,99.9
2023-04-20T08:19:56.084Z,99.9
2023-04-20T08:22:00.715Z,99.9
2023-04-20T08:30:17.349Z,99.9
2023-04-20T08:32:20.964Z,99.9
2023-04-20T08:34:24.808Z,99.9
2023-04-20T08:36:28.195Z,99.9
2023-04-20T08:40:38.524Z,99.9
2023-04-20T08:42:42.131Z,99.9
2023-04-20T08:44:45.783Z,99.9
2023-04-20T08:46:49.446Z,99.9
2023-04-20T08:53:00.289Z,99.9
2023-04-20T08:55:06.962Z,99.9
2023-04-20T08:57:10.581Z,99.9
2023-04-20T08:59:14.258Z,99.9
2023-04-20T09:00:17.553Z,99.9
2023-04-20T09:04:25.583Z,99.9
2023-04-20T09:12:42.294Z,99.9
2023-04-20T09:16:49.585Z,99.9
2023-04-20T09:18:53.075Z,99.9
2023-04-20T09:20:56.667Z,99.9
2023-04-20T09:31:17.816Z,99.9
2023-04-20T09:33:21.396Z,99.9
2023-04-20T09:35:24.981Z,99.9
2023-04-20T09:37:31.670Z,99.9
2023-04-20T09:39:35.305Z,99.9
2023-04-20T09:41:38.870Z,99.9
2023-04-20T09:43:42.462Z,99.9
2023-04-20T09:45:46.096Z,99.9
2023-04-20T09:47:49.941Z,99.9
2023-04-20T09:49:53.213Z,99.9
2023-04-20T09:54:03.516Z,99.9
2023-04-20T09:56:07.103Z,99.9
2023-04-20T10:06:48.658Z,99.9
2023-04-20T10:27:27.627Z,99.9
2023-04-20T10:39:52.255Z,93.2
2023-04-20T10:43:59.427Z,98.7
2023-04-20T10:46:03.021Z,99
2023-04-20T10:48:09.716Z,99.5
2023-04-20T10:50:13.213Z,99.7
2023-04-20T10:52:16.765Z,99.7
2023-04-20T10:53:20.057Z,99.9
2023-04-20T11:09:51.679Z,99.9
2023-04-20T11:11:55.237Z,99.9
2023-04-20T11:13:58.776Z,99.9
2023-04-20T11:16:05.508Z,99.9
2023-04-20T11:18:09.166Z,99.9
2023-04-20T11:20:12.560Z,99.9
2023-04-20T11:22:16.110Z,99.9
2023-04-20T11:24:19.696Z,99.9
2023-04-20T11:26:23.234Z,99.9
2023-04-20T11:28:26.820Z,99.9
2023-04-20T11:30:33.451Z,99.9
2023-04-20T11:32:37.178Z,99.9
2023-04-20T11:45:01.525Z,99.9
2023-04-20T11:50:11.950Z,99.9
2023-04-20T11:52:17.068Z,99.9
2023-04-20T11:54:20.618Z,99.9
2023-04-20T11:56:24.157Z,99.9
2023-04-20T11:58:30.808Z,99.9
2023-04-20T12:00:34.334Z,99.9
2023-04-20T12:04:41.741Z,99.9
2023-04-20T12:08:48.656Z,99.9
2023-04-20T12:17:06.025Z,99.9
2023-04-20T12:23:16.769Z,99.9
2023-04-20T12:25:20.284Z,99.9
2023-04-20T12:27:26.967Z,99.9
2023-04-20T12:35:41.242Z,99.9
2023-04-20T12:43:58.638Z,99.9
2023-04-20T12:46:02.184Z,99.9
2023-04-20T12:47:05.645Z,99.9
2023-04-20T12:49:09.074Z,99.9
2023-04-20T12:51:12.608Z,99.9
2023-04-20T12:53:16.108Z,99.9
2023-04-20T12:55:22.749Z,93.6
2023-04-20T12:59:29.849Z,99.6
2023-04-20T13:01:33.489Z,99.8
2023-04-20T13:03:37.123Z,99.8
2023-04-20T13:09:50.572Z,95.7
2023-04-20T13:13:57.612Z,97.3
2023-04-20T13:16:01.082Z,98.3
2023-04-20T13:22:14.586Z,99.6
2023-04-20T13:26:21.754Z,99.9
2023-04-20T13:28:25.280Z,99.9
2023-04-20T13:30:28.815Z,99.9
2023-04-20T13:32:32.361Z,99.9
2023-04-20T13:34:35.850Z,99.9
2023-04-20T13:36:39.362Z,99.9
2023-04-20T13:38:46.005Z,99.9
2023-04-20T13:40:49.500Z,99.9
2023-04-20T13:42:53.076Z,99.9
2023-04-20T13:45:17.345Z,99.9
2023-04-20T13:47:20.981Z,99.9
2023-04-20T13:49:24.369Z,99.9
2023-04-20T13:51:31.025Z,99.9
2023-04-20T13:53:34.570Z,99.9
2023-04-20T13:55:38.107Z,99.9
2023-04-20T13:59:45.175Z,99.9
2023-04-20T14:03:52.249Z,99.9
2023-04-20T14:05:58.862Z,99.9
2023-04-20T14:08:02.362Z,99.9
2023-04-20T14:12:09.451Z,93.3
2023-04-20T14:14:12.967Z,93.7
2023-04-20T14:18:20.047Z,75.6
2023-04-20T14:20:26.625Z,85.1
2023-04-20T14:24:33.643Z,65.7
2023-04-20T14:26:37.137Z,56.5
2023-04-20T14:28:40.670Z,56.8
2023-04-20T14:30:44.158Z,56.7
2023-04-20T14:32:47.662Z,57.3
2023-04-20T14:34:54.184Z,66.4
2023-04-20T14:42:07.819Z,86.1
2023-04-20T14:50:24.766Z,79.1
2023-04-20T14:54:31.692Z,61.3
2023-04-20T14:56:35.115Z,73.5
2023-04-20T15:00:42.079Z,64.2
2023-04-20T15:15:09.535Z,88.6
2023-04-20T15:17:16.060Z,93.9
2023-04-20T15:19:19.572Z,95.4
2023-04-20T15:21:23.064Z,95.6
2023-04-20T15:35:50.633Z,63
2023-04-20T15:36:53.913Z,61.7
2023-04-20T15:38:57.988Z,67.7
2023-04-20T15:41:00.923Z,66.3
2023-04-20T15:43:04.405Z,51.7
2023-04-20T15:45:11.009Z,53.4
2023-04-20T15:49:18.018Z,57.2
2023-04-20T15:59:38.621Z,78.5
2023-04-20T16:05:49.143Z,59
2023-04-20T16:07:52.639Z,52.3
2023-04-20T16:09:56.141Z,52.3
2023-04-20T16:11:59.698Z,54
2023-04-20T16:14:06.226Z,53.5
2023-04-20T16:18:13.262Z,55.5
2023-04-20T16:20:16.747Z,55.3
2023-04-20T16:22:20.256Z,56.4
2023-04-20T16:24:23.713Z,56.4
2023-04-20T16:26:27.209Z,56.7
2023-04-20T16:28:33.767Z,57.7
2023-04-20T16:30:37.274Z,57.6
2023-04-20T16:52:18.483Z,73.2
2023-04-20T16:56:28.590Z,48.9
2023-04-20T16:58:32.054Z,48.5
2023-04-20T17:02:39.212Z,64.8
2023-04-20T17:04:42.624Z,76.6
2023-04-20T17:10:56.186Z,61.3
2023-04-20T17:12:59.664Z,61.8
2023-04-20T17:15:03.214Z,63.8
2023-04-20T17:17:06.700Z,67.9
2023-04-20T17:19:10.202Z,67.9
2023-04-20T17:21:13.768Z,68.2
2023-04-20T17:23:17.239Z,68.7
2023-04-20T17:25:23.842Z,58.8
2023-04-20T17:27:27.409Z,58.9
2023-04-20T17:29:30.914Z,58.9
2023-04-20T17:44:19.504Z,79.6
2023-04-20T17:48:27.878Z,88.2
2023-04-20T17:50:31.392Z,94.3
2023-04-20T17:52:37.985Z,93.1
2023-04-20T17:54:41.525Z,93.2
2023-04-20T17:56:45.103Z,93.4
2023-04-20T18:00:52.189Z,96.2
2023-04-20T18:04:59.677Z,97.4
2023-04-20T18:07:05.919Z,98.4
2023-04-20T18:09:09.465Z,98.6
2023-04-20T18:13:16.622Z,99.1
2023-04-20T18:15:20.189Z,99.6
2023-04-20T18:17:23.753Z,99.9
2023-04-20T18:19:27.322Z,99.9
2023-04-20T18:21:33.964Z,99.9
2023-04-20T18:23:37.516Z,99.9
2023-04-20T18:25:41.110Z,99.9
2023-04-20T18:26:44.405Z,99.9
2023-04-20T18:28:48.002Z,99.9
2023-04-20T18:30:51.579Z,99.9
2023-04-20T18:32:55.172Z,99.9
2023-04-20T18:35:01.797Z,99.9
2023-04-20T18:37:05.376Z,99.9
2023-04-20T18:45:19.725Z,99.9
2023-04-20T18:55:40.719Z,99.9
2023-04-20T19:06:02.431Z,99.9
2023-04-20T19:08:05.996Z,99.9
2023-04-20T19:10:09.594Z,99.9
2023-04-20T19:12:13.192Z,99.9
2023-04-20T19:14:17.055Z,99.9
2023-04-20T19:16:20.419Z,99.9
2023-04-20T19:20:30.689Z,99.9
2023-04-20T19:22:34.206Z,99.9
2023-04-20T19:23:37.557Z,99.9
2023-04-20T19:25:41.171Z,99.9
2023-04-20T19:29:48.332Z,99.9
2023-04-20T19:31:55.036Z,99.9
2023-04-20T19:33:58.572Z,99.9
2023-04-20T19:36:02.195Z,99.9
2023-04-20T19:38:05.779Z,99.9
2023-04-20T19:40:09.352Z,99.9
2023-04-20T19:42:12.950Z,99.9
2023-04-20T19:44:16.842Z,99.9
2023-04-20T19:46:23.265Z,99.9
2023-04-20T19:48:26.830Z,99.9
2023-04-20T19:50:30.424Z,99.9
2023-04-20T19:52:34.038Z,99.9
2023-04-20T19:54:37.616Z,99.9
2023-04-20T19:56:41.245Z,99.9
2023-04-20T20:00:51.524Z,99.9
2023-04-20T20:02:55.256Z,99.9
2023-04-20T20:07:02.375Z,99.9
2023-04-20T20:09:05.990Z,99.9
2023-04-20T20:11:09.588Z,99.9
2023-04-20T20:13:13.173Z,99.9
2023-04-20T20:15:19.907Z,99.9
2023-04-20T20:17:23.499Z,99.9
2023-04-20T20:19:27.103Z,99.9
2023-04-20T20:20:30.517Z,99.9
2023-04-20T20:22:34.031Z,99.9
2023-04-20T20:24:37.671Z,99.9
2023-04-20T20:26:41.274Z,99.9
2023-04-20T20:28:47.901Z,99.9
2023-04-20T20:41:09.581Z,99.9
2023-04-20T20:43:16.279Z,99.9
2023-04-20T20:45:19.874Z,99.9
2023-04-20T20:47:23.534Z,99.9
2023-04-20T20:49:27.143Z,99.9
2023-04-20T20:51:30.751Z,99.9
2023-04-20T20:53:34.361Z,99.9
2023-04-20T20:55:37.980Z,99.9
2023-04-20T20:57:44.657Z,99.9
2023-04-20T20:59:48.301Z,99.9
2023-04-20T21:01:51.914Z,99.9
2023-04-20T21:03:55.590Z,99.9
2023-04-20T21:05:59.130Z,99.9
2023-04-20T21:10:06.410Z,99.9
2023-04-20T21:12:13.102Z,99.9
2023-04-20T21:33:13.056Z,99.9
2023-04-20T21:35:16.629Z,99.9
2023-04-20T21:37:20.227Z,99.9
2023-04-20T21:39:26.904Z,99.9
2023-04-20T21:43:34.169Z,99.9
2023-04-20T21:45:37.864Z,99.9
2023-04-20T21:49:45.067Z,99.9
2023-04-20T21:53:55.397Z,99.9
2023-04-20T21:55:59.003Z,99.9
2023-04-20T21:58:02.598Z,99.9
2023-04-20T22:00:06.255Z,99.9
2023-04-20T22:06:17.152Z,99.9
2023-04-20T22:13:34.443Z,99.9
2023-04-20T22:19:45.326Z,99.9
2023-04-20T22:21:52.024Z,99.9
2023-04-20T22:25:59.312Z,99.9
2023-04-20T22:28:02.920Z,99.9
2023-04-20T22:30:06.537Z,99.9
2023-04-20T22:32:10.155Z,99.9
2023-04-20T22:34:13.769Z,99.9
2023-04-20T22:36:20.499Z,99.9
2023-04-20T22:42:31.326Z,99.9
2023-04-20T22:54:56.189Z,99.9
2023-04-20T23:01:07.166Z,99.9
2023-04-20T23:03:10.913Z,99.9
2023-04-20T23:07:21.026Z,99.9
2023-04-20T23:12:31.639Z,99.9
2023-04-20T23:14:35.298Z,99.9
2023-04-20T23:22:52.893Z,99.9
2023-04-20T23:24:56.522Z,99.9
2023-04-20T23:27:00.153Z,99.9
2023-04-20T23:29:03.816Z,99.9
2023-04-20T23:31:07.437Z,99.9
2023-04-20T23:33:14.185Z,99.9
2023-04-20T23:35:17.784Z,99.9
2023-04-20T23:37:21.418Z,99.9
2023-04-20T23:39:25.031Z,99.9
2023-04-20T23:43:32.297Z,99.9
2023-04-20T23:47:44.234Z,99.9
2023-04-20T23:49:47.767Z,99.9
2023-04-20T23:51:51.377Z,99.9
2023-04-20T23:53:55.015Z,99.9
2023-04-20T23:55:58.630Z,99.9
